Nearby METAR Reports

 

KCXY - Harrisburg, Pennsylvania, USA
Distance from station: E 9mi, 14km
Updated: Wed, 21-Apr-2021 9:56am EDT
Few Clouds
Few Clouds
 Wind from W
Wind: W 8 mph , 13 km/h
Temperature: 63°F , 17°C
Dew Point: 45°F , 7°C
Humidity: 52%
Barometer: 29.63 inHg , 1003.4 hPa
Clouds: Few Clouds
Visibility: 10 miles , 16 km
Cloud details: Few Clouds 9000 ft
Few Clouds 11000 ft
2021/04/21 13:56 KCXY 211356Z 26007KT 10SM FEW090 FEW110 17/07 A2963 RMK AO2 SLP033 T01670072
KMDT - Middletown, Pennsylvania, USA
Distance from station: E 13mi, 21km
Updated: Wed, 21-Apr-2021 9:56am EDT
Mostly cloudy
Mostly cloudy
 Wind from W
Wind: W 6 mph , 9 km/h, Gust: 18 mph , 30 km/h
Temperature: 64°F , 18°C
Dew Point: 45°F , 7°C
Humidity: 49%
Barometer: 29.61 inHg , 1002.7 hPa
Clouds: Mostly cloudy
Visibility: 10 miles , 16 km
Cloud details: Few Clouds 9000 ft
Partly cloudy 12000 ft
Mostly cloudy 20000 ft
2021/04/21 13:56 KMDT 211356Z 28005G16KT 10SM FEW090 SCT120 BKN200 18/07 A2961 RMK AO2 SLP028 T01780067
 
KTHV - York, Pennsylvania, USA
Distance from station: SSE 22mi, 36km
Updated: Wed, 21-Apr-2021 9:53am EDT
Clear
Clear
 Wind from SW
Wind: SW 12 mph , 19 km/h, Gust: 21 mph , 33 km/h
Temperature: 64°F , 18°C
Dew Point: 45°F , 7°C
Humidity: 49%
Barometer: 29.61 inHg , 1002.7 hPa
Clouds: Clear
Visibility: 10 miles , 16 km
2021/04/21 13:53 KTHV 211353Z AUTO 23010G18KT 10SM CLR 18/07 A2961 RMK AO2 SLP028 T01780072
KMUI - Muir Aaf/Indiant, Pennsylvania, USA
Distance from station: ENE 27mi, 44km
Updated: Wed, 21-Apr-2021 9:56am EDT
Mostly cloudy
Mostly cloudy
 Wind from SW
Wind: SW 6 mph , 9 km/h
Temperature: 61°F , 16°C
Dew Point: 45°F , 7°C
Humidity: 55%
Barometer: 29.62 inHg , 1003 hPa
Clouds: Mostly cloudy
Visibility: 10 miles , 16 km
Cloud details: Few Clouds 7000 ft
Partly cloudy 11000 ft
Mostly cloudy 14000 ft
Mostly cloudy 18000 ft
2021/04/21 13:56 KMUI 211356Z 22005KT 10SM FEW070 SCT110 BKN140 BKN180 16/07 A2962 RMK AO2A SLP032 T01640073
 
KLNS - Lancaster, Pennsylvania, USA
Distance from station: E 38mi, 62km
Updated: Wed, 21-Apr-2021 9:53am EDT
Clear
Clear
 Wind from SSW
Wind: SSW 9 mph , 15 km/h
Temperature: 64°F , 18°C
Dew Point: 46°F , 8°C
Humidity: 52%
Barometer: 29.62 inHg , 1003 hPa
Clouds: Clear
Visibility: 10 miles , 16 km
2021/04/21 13:53 KLNS 211353Z 21008KT 10SM CLR 18/08 A2962 RMK AO2 SLP030 T01780083
KRYT - Fountain Dale, Pennsylvania, USA
Distance from station: SSW 40mi, 65km
Updated: Mon, 13-Nov-2017 7:53am EST
NOT Current
Mist, Overcast
Mist, Overcast
 Wind from calm
Wind: Calm
Temperature: 37°F , 3°C
Dew Point: 34°F , 1°C
Humidity: 87%
Barometer: 30.31 inHg , 1026.4 hPa
Summary: Mist
Clouds: Overcast
Visibility: 5 miles , 8 km
Cloud details: Overcast 700 ft
2017/11/13 12:53 KRYT 131253Z AUTO 00000KT 5SM BR OVC007 03/01 A3031 RMK AO2 SLP275 T00280011 TSNO $
 
KSEG - Selinsgrove, Pennsylvania, USA
Distance from station: N 42mi, 67km
Updated: Wed, 21-Apr-2021 9:53am EDT
Mostly cloudy
Mostly cloudy
 Wind from NW
Wind: NW 12 mph , 19 km/h, Gust: 21 mph , 33 km/h
Temperature: 46°F , 8°C
Wind Chill: 40°F , 4°C
Dew Point: 39°F , 4°C
Humidity: 76%
Barometer: 29.71 inHg , 1006.1 hPa
Clouds: Mostly cloudy
Visibility: 10 miles , 16 km
Cloud details: Partly cloudy 1700 ft
Mostly cloudy 2500 ft
Mostly cloudy 4000 ft
2021/04/21 13:53 KSEG 211353Z AUTO 32010G18KT 10SM SCT017 BKN025 BKN040 08/04 A2971 RMK AO2 RAB12E22 SLP060 P0000 T00830044
KDMW - Carroll Cnty, Maryland, USA
Distance from station: S 43mi, 69km
Updated: Wed, 21-Apr-2021 10:15am EDT
Clear
Clear
 Wind from WSW
Wind: WSW 13 mph , 20 km/h, Gust: 18 mph , 30 km/h
Temperature: 64°F , 18°C
Dew Point: 48°F , 9°C
Humidity: 56%
Barometer: 29.66 inHg , 1004.4 hPa
Clouds: Clear
Visibility: 10 miles , 16 km
2021/04/21 14:15 KDMW 211415Z AUTO 25011G16KT 10SM CLR 18/09 A2966 RMK AO2
 
KRSP - Camp David, Maryland, USA
Distance from station: SSW 46mi, 74km
Updated: Wed, 21-Apr-2021 10:13am EDT
Partly cloudy
Partly cloudy
 Wind from WNW
Wind: WNW 17 mph , 28 km/h, Gust: 38 mph , 61 km/h
Temperature: 52°F , 11°C
Dew Point: 41°F , 5°C
Humidity: 67%
Barometer: 29.67 inHg , 1004.7 hPa
Clouds: Partly cloudy
Visibility: 10 miles , 16 km
Cloud details: Few Clouds 2300 ft
Partly cloudy 3000 ft
2021/04/21 14:13 KRSP 211413Z AUTO 29015G33KT 10SM FEW023 SCT030 11/05 A2967 RMK AO2 PK WND 29034/1357 T01110050 TSNO PNO $